createdAt,value
2023-05-17T00:00:40.897Z,14.46
2023-05-17T00:01:44.513Z,14.46
2023-05-17T00:02:48.419Z,14.46
2023-05-17T00:03:54.330Z,14.48
2023-05-17T00:05:00.082Z,14.46
2023-05-17T00:06:05.074Z,14.46
2023-05-17T00:07:07.974Z,14.46
2023-05-17T00:08:12.533Z,14.45
2023-05-17T00:09:15.756Z,14.45
2023-05-17T00:10:19.460Z,14.46
2023-05-17T00:11:23.503Z,14.44
2023-05-17T00:12:27.924Z,14.46
2023-05-17T00:13:32.073Z,14.44
2023-05-17T00:14:36.120Z,14.43
2023-05-17T00:15:39.105Z,14.44
2023-05-17T00:16:44.005Z,14.43
2023-05-17T00:17:47.365Z,14.44
2023-05-17T00:18:51.581Z,14.44
2023-05-17T00:19:54.635Z,14.44
2023-05-17T00:20:58.733Z,14.42
2023-05-17T00:22:02.674Z,14.42
2023-05-17T00:23:06.673Z,14.42
2023-05-17T00:24:09.791Z,14.40
2023-05-17T00:25:13.736Z,14.40
2023-05-17T00:26:17.847Z,14.40
2023-05-17T00:27:21.794Z,14.39
2023-05-17T00:28:24.654Z,14.40
2023-05-17T00:29:30.120Z,14.41
2023-05-17T00:30:33.375Z,14.40
2023-05-17T00:31:37.065Z,14.39
2023-05-17T00:32:40.119Z,14.39
2023-05-17T00:33:43.708Z,14.38
2023-05-17T00:34:47.027Z,14.37
2023-05-17T00:35:50.521Z,14.37
2023-05-17T00:36:53.366Z,14.37
2023-05-17T00:37:57.346Z,14.37
2023-05-17T00:38:59.926Z,14.38
2023-05-17T00:40:07.104Z,14.37
2023-05-17T00:41:10.660Z,14.38
2023-05-17T00:42:15.606Z,14.39
2023-05-17T00:43:19.412Z,14.39
2023-05-17T00:44:23.019Z,14.38
2023-05-17T00:45:27.331Z,14.39
2023-05-17T00:46:31.567Z,14.40
2023-05-17T00:47:35.068Z,14.39
2023-05-17T00:48:39.279Z,14.40
2023-05-17T00:49:42.287Z,14.39
2023-05-17T00:50:46.429Z,14.40
2023-05-17T00:51:49.559Z,14.40
2023-05-17T00:52:53.127Z,14.40
2023-05-17T00:53:56.696Z,14.40
2023-05-17T00:55:00.869Z,14.40
2023-05-17T00:56:03.987Z,14.39
2023-05-17T00:57:08.151Z,14.40
2023-05-17T00:58:11.506Z,14.39
2023-05-17T00:59:15.961Z,14.39
2023-05-17T01:00:18.997Z,14.37
2023-05-17T01:01:28.447Z,14.39
2023-05-17T01:02:31.666Z,14.40
2023-05-17T01:03:35.860Z,14.39
2023-05-17T01:04:39.644Z,14.39
2023-05-17T01:05:43.970Z,14.40
2023-05-17T01:06:46.951Z,14.40
2023-05-17T01:07:51.004Z,14.41
2023-05-17T01:08:54.447Z,14.40
2023-05-17T01:09:58.237Z,14.40
2023-05-17T01:11:14.899Z,14.41
2023-05-17T01:12:31.956Z,14.40
2023-05-17T01:13:41.065Z,14.39
2023-05-17T01:14:53.911Z,14.39
2023-05-17T01:16:06.477Z,14.38
2023-05-17T01:17:18.017Z,14.37
2023-05-17T01:18:31.259Z,14.35
2023-05-17T01:19:52.894Z,14.34
2023-05-17T01:21:00.238Z,14.33
2023-05-17T01:22:21.285Z,14.34
2023-05-17T01:23:37.273Z,14.31
2023-05-17T01:24:51.773Z,14.31
2023-05-17T01:26:09.374Z,14.31
2023-05-17T01:27:15.776Z,14.29
2023-05-17T01:28:21.836Z,14.28
2023-05-17T01:29:27.016Z,14.30
2023-05-17T01:30:32.363Z,14.30
2023-05-17T01:31:36.929Z,14.32
2023-05-17T01:32:43.198Z,14.32
2023-05-17T01:33:46.237Z,14.31
2023-05-17T01:34:49.866Z,14.32
2023-05-17T01:35:53.728Z,14.32
2023-05-17T01:36:57.950Z,14.32
2023-05-17T01:38:00.908Z,14.31
2023-05-17T01:39:05.145Z,14.31
2023-05-17T01:40:09.564Z,14.31
2023-05-17T01:41:21.089Z,14.31
2023-05-17T01:42:31.702Z,14.30
2023-05-17T01:43:43.185Z,14.29
2023-05-17T01:45:00.780Z,14.28
2023-05-17T01:46:14.850Z,14.26
2023-05-17T01:47:28.942Z,14.24
2023-05-17T01:48:41.272Z,14.23
2023-05-17T01:49:49.422Z,14.23
2023-05-17T01:50:55.715Z,14.22
2023-05-17T01:52:03.640Z,14.24
2023-05-17T01:53:12.189Z,14.24
2023-05-17T01:54:19.133Z,14.23
2023-05-17T01:55:33.004Z,14.23
2023-05-17T01:56:41.887Z,14.21
2023-05-17T01:57:50.452Z,14.21
2023-05-17T01:58:54.179Z,14.20
2023-05-17T02:00:01.960Z,14.19
2023-05-17T02:01:16.104Z,14.20
2023-05-17T02:02:22.813Z,14.20
2023-05-17T02:03:29.497Z,14.21
2023-05-17T02:04:33.091Z,14.22
2023-05-17T02:05:37.104Z,14.22
2023-05-17T02:06:40.144Z,14.23
2023-05-17T02:07:44.008Z,14.24
2023-05-17T02:08:46.788Z,14.25
2023-05-17T02:09:50.834Z,14.25
2023-05-17T02:10:54.470Z,14.25
2023-05-17T02:11:58.480Z,14.25
2023-05-17T02:13:02.635Z,14.24
2023-05-17T02:14:06.151Z,14.23
2023-05-17T02:15:11.639Z,14.23
2023-05-17T02:16:15.764Z,14.22
2023-05-17T02:17:19.000Z,14.21
2023-05-17T02:18:23.259Z,14.21
2023-05-17T02:19:26.167Z,14.21
2023-05-17T02:20:30.295Z,14.21
2023-05-17T02:21:33.453Z,14.21
2023-05-17T02:22:37.648Z,14.20
2023-05-17T02:23:41.233Z,14.19
2023-05-17T02:24:44.461Z,14.20
2023-05-17T02:25:48.267Z,14.20
2023-05-17T02:26:51.527Z,14.21
2023-05-17T02:27:56.892Z,14.21
2023-05-17T02:29:01.445Z,14.21
2023-05-17T02:30:06.745Z,14.20
2023-05-17T02:31:09.885Z,14.20
2023-05-17T02:32:13.827Z,14.19
2023-05-17T02:33:17.026Z,14.18
2023-05-17T02:34:21.162Z,14.17
2023-05-17T02:35:24.048Z,14.17
2023-05-17T02:36:28.344Z,14.15
2023-05-17T02:37:30.992Z,14.15
2023-05-17T02:38:35.165Z,14.15
2023-05-17T02:39:37.803Z,14.15
2023-05-17T02:40:43.155Z,14.14
2023-05-17T02:41:46.367Z,14.13
2023-05-17T02:42:50.523Z,14.14
2023-05-17T02:43:53.488Z,14.15
2023-05-17T02:44:58.911Z,14.15
2023-05-17T02:46:01.938Z,14.14
2023-05-17T02:47:06.320Z,14.14
2023-05-17T02:48:09.897Z,14.15
2023-05-17T02:49:14.268Z,14.15
2023-05-17T02:50:17.341Z,14.16
2023-05-17T02:51:21.155Z,14.15
2023-05-17T02:52:24.100Z,14.14
2023-05-17T02:53:28.423Z,14.15
2023-05-17T02:54:31.158Z,14.16
2023-05-17T02:55:35.454Z,14.16
2023-05-17T02:56:38.162Z,14.15
2023-05-17T02:57:41.710Z,14.16
2023-05-17T02:58:45.534Z,14.15
2023-05-17T02:59:49.474Z,14.15
2023-05-17T03:00:59.022Z,14.16
2023-05-17T03:02:15.165Z,14.14
2023-05-17T03:03:22.290Z,14.14
2023-05-17T03:04:36.477Z,14.12
2023-05-17T03:05:39.173Z,14.12
2023-05-17T03:06:44.220Z,14.13
2023-05-17T03:07:46.728Z,14.14
2023-05-17T03:08:50.555Z,14.12
2023-05-17T03:09:53.559Z,14.14
2023-05-17T03:10:57.459Z,14.14
2023-05-17T03:12:01.472Z,14.15
2023-05-17T03:13:05.645Z,14.14
2023-05-17T03:14:08.382Z,14.15
2023-05-17T03:15:13.137Z,14.16
2023-05-17T03:16:17.434Z,14.16
2023-05-17T03:17:21.648Z,14.16
2023-05-17T03:18:25.589Z,14.14
2023-05-17T03:19:29.667Z,14.15
2023-05-17T03:20:32.695Z,14.14
2023-05-17T03:21:36.586Z,14.15
2023-05-17T03:22:40.448Z,14.16
2023-05-17T03:23:44.236Z,14.16
2023-05-17T03:24:47.658Z,14.16
2023-05-17T03:25:51.361Z,14.17
2023-05-17T03:26:54.067Z,14.17
2023-05-17T03:27:58.600Z,14.17
2023-05-17T03:29:01.400Z,14.18
2023-05-17T03:30:05.540Z,14.18
2023-05-17T03:31:08.737Z,14.18
2023-05-17T03:32:13.927Z,14.20
2023-05-17T03:33:16.882Z,14.18
2023-05-17T03:34:20.583Z,14.17
2023-05-17T03:35:23.990Z,14.18
2023-05-17T03:36:28.438Z,14.20
2023-05-17T03:37:31.527Z,14.19
2023-05-17T03:38:36.944Z,14.20
2023-05-17T03:39:40.914Z,14.20
2023-05-17T03:40:44.418Z,14.19
2023-05-17T03:41:49.102Z,14.19
2023-05-17T03:42:52.151Z,14.19
2023-05-17T03:43:56.172Z,14.19
2023-05-17T03:44:59.315Z,14.19
2023-05-17T03:46:03.524Z,14.19
2023-05-17T03:47:06.762Z,14.19
2023-05-17T03:48:12.046Z,14.18
2023-05-17T03:49:15.020Z,14.18
2023-05-17T03:50:19.069Z,14.19
2023-05-17T03:51:23.037Z,14.18
2023-05-17T03:52:26.765Z,14.20
2023-05-17T03:53:29.597Z,14.20
2023-05-17T03:54:33.610Z,14.20
2023-05-17T03:55:36.747Z,14.20
2023-05-17T03:56:41.193Z,14.21
2023-05-17T03:57:44.223Z,14.20
2023-05-17T03:58:47.936Z,14.20
2023-05-17T03:59:50.917Z,14.20
2023-05-17T04:00:54.865Z,14.20
2023-05-17T04:01:58.829Z,14.18
2023-05-17T04:03:02.855Z,14.19
2023-05-17T04:04:07.352Z,14.20
2023-05-17T04:05:13.087Z,14.21
2023-05-17T04:06:16.159Z,14.22
2023-05-17T04:07:21.253Z,14.23
2023-05-17T04:08:24.095Z,14.23
2023-05-17T04:09:27.718Z,14.23
2023-05-17T04:10:31.053Z,14.24
2023-05-17T04:11:35.181Z,14.24
2023-05-17T04:12:38.629Z,14.25
2023-05-17T04:13:43.310Z,14.24
2023-05-17T04:14:46.465Z,14.24
2023-05-17T04:15:51.045Z,14.22
2023-05-17T04:16:55.014Z,14.21
2023-05-17T04:17:58.896Z,14.20
2023-05-17T04:19:03.101Z,14.20
2023-05-17T04:20:08.020Z,14.19
2023-05-17T04:21:13.222Z,14.19
2023-05-17T04:22:15.952Z,14.18
2023-05-17T04:23:19.204Z,14.18
2023-05-17T04:24:23.310Z,14.20
2023-05-17T04:25:27.139Z,14.19
2023-05-17T04:26:31.563Z,14.19
2023-05-17T04:27:34.229Z,14.20
2023-05-17T04:28:38.450Z,14.20
2023-05-17T04:29:41.342Z,14.21
2023-05-17T04:30:46.277Z,14.21
2023-05-17T04:31:50.996Z,14.22
2023-05-17T04:32:53.754Z,14.24
2023-05-17T04:33:57.641Z,14.25
2023-05-17T04:35:01.255Z,14.26
2023-05-17T04:36:07.438Z,14.26
2023-05-17T04:37:11.736Z,14.27
2023-05-17T04:38:16.581Z,14.27
2023-05-17T04:39:19.336Z,14.27
2023-05-17T04:40:22.977Z,14.28
2023-05-17T04:41:25.893Z,14.28
2023-05-17T04:42:30.053Z,14.29
2023-05-17T04:43:33.713Z,14.28
2023-05-17T04:44:37.388Z,14.29
2023-05-17T04:45:40.059Z,14.29
2023-05-17T04:46:44.409Z,14.30
2023-05-17T04:47:48.068Z,14.32
2023-05-17T04:48:52.089Z,14.32
2023-05-17T04:49:56.598Z,14.35
2023-05-17T04:51:04.602Z,14.36
2023-05-17T04:52:09.466Z,14.35
2023-05-17T04:53:13.673Z,14.37
2023-05-17T04:54:16.832Z,14.39
2023-05-17T04:55:21.346Z,14.41
2023-05-17T04:56:24.424Z,14.43
2023-05-17T04:57:28.401Z,14.44
2023-05-17T04:58:32.724Z,14.46
2023-05-17T04:59:36.490Z,14.48
2023-05-17T05:00:39.080Z,14.51
2023-05-17T05:01:43.566Z,14.53
2023-05-17T05:02:47.200Z,14.55
2023-05-17T05:03:51.398Z,14.58
2023-05-17T05:04:54.414Z,14.60
2023-05-17T05:05:58.510Z,14.61
2023-05-17T05:07:01.620Z,14.62
2023-05-17T05:08:06.980Z,14.65
2023-05-17T05:09:11.655Z,14.66
2023-05-17T05:10:15.545Z,14.67
2023-05-17T05:11:19.000Z,14.70
2023-05-17T05:12:22.578Z,14.71
2023-05-17T05:13:25.579Z,14.70
2023-05-17T05:14:30.608Z,14.71
2023-05-17T05:15:33.928Z,14.70
2023-05-17T05:16:37.888Z,14.72
2023-05-17T05:17:40.859Z,14.71
2023-05-17T05:18:45.568Z,14.74
2023-05-17T05:19:48.829Z,14.75
2023-05-17T05:20:53.338Z,14.76
2023-05-17T05:21:57.251Z,14.77
2023-05-17T05:23:03.980Z,14.77
2023-05-17T05:24:10.370Z,14.78
2023-05-17T05:25:13.081Z,14.78
2023-05-17T05:26:17.110Z,14.80
2023-05-17T05:27:20.413Z,14.81
2023-05-17T05:28:25.034Z,14.82
2023-05-17T05:29:29.032Z,14.81
2023-05-17T05:30:34.045Z,14.84
2023-05-17T05:31:37.124Z,14.84
2023-05-17T05:32:40.930Z,14.85
2023-05-17T05:33:44.449Z,14.86
2023-05-17T05:34:49.141Z,14.87
2023-05-17T05:35:54.928Z,14.89
2023-05-17T05:36:59.123Z,14.90
2023-05-17T05:38:02.002Z,14.90
2023-05-17T05:39:07.847Z,14.92
2023-05-17T05:40:14.577Z,14.93
2023-05-17T05:41:19.110Z,14.93
2023-05-17T05:42:22.349Z,14.92
2023-05-17T05:43:26.081Z,14.94
2023-05-17T05:44:29.178Z,14.93
2023-05-17T05:45:34.006Z,14.93
2023-05-17T05:46:37.359Z,14.95
2023-05-17T05:47:40.837Z,14.94
2023-05-17T05:48:45.032Z,14.93
2023-05-17T05:49:49.144Z,14.93
2023-05-17T05:50:53.368Z,14.94
2023-05-17T05:51:57.640Z,14.95
2023-05-17T05:53:11.007Z,14.94
2023-05-17T05:54:21.996Z,14.91
2023-05-17T05:55:27.069Z,14.92
2023-05-17T05:56:30.837Z,14.93
2023-05-17T05:57:33.793Z,14.96
2023-05-17T05:58:38.466Z,14.97
2023-05-17T05:59:41.090Z,14.97
2023-05-17T06:00:45.368Z,15.00
2023-05-17T06:01:49.412Z,15.00
2023-05-17T06:02:54.148Z,15.01
2023-05-17T06:03:57.113Z,15.02
2023-05-17T06:05:01.793Z,15.05
2023-05-17T06:06:05.870Z,15.05
2023-05-17T06:07:09.688Z,15.06
2023-05-17T06:08:13.050Z,15.05
2023-05-17T06:09:17.487Z,15.06
2023-05-17T06:10:21.268Z,15.05
2023-05-17T06:11:27.807Z,15.06
2023-05-17T06:12:31.037Z,15.06
2023-05-17T06:13:35.467Z,15.07
2023-05-17T06:14:38.738Z,15.10
2023-05-17T06:15:43.262Z,15.10
2023-05-17T06:16:48.859Z,15.13
2023-05-17T06:17:52.775Z,15.16
2023-05-17T06:18:56.505Z,15.20
2023-05-17T06:20:00.898Z,15.22
2023-05-17T06:21:04.321Z,15.27
2023-05-17T06:22:08.279Z,15.33
2023-05-17T06:23:11.145Z,15.43
2023-05-17T06:24:15.467Z,15.58
2023-05-17T06:25:18.277Z,15.88
2023-05-17T06:26:22.680Z,16.26
2023-05-17T06:27:27.173Z,16.74
2023-05-17T06:28:31.138Z,17.29
2023-05-17T06:29:34.834Z,17.88
2023-05-17T06:30:37.789Z,18.30
2023-05-17T06:31:41.642Z,18.72
2023-05-17T06:32:44.479Z,19.17
2023-05-17T06:33:48.258Z,19.71
2023-05-17T06:34:51.610Z,20.10
2023-05-17T06:35:58.168Z,20.23
2023-05-17T06:37:01.772Z,20.36
2023-05-17T06:38:05.929Z,20.64
2023-05-17T06:39:09.180Z,21.13
2023-05-17T06:40:17.021Z,21.68
2023-05-17T06:41:21.362Z,22.22
2023-05-17T06:42:30.785Z,22.48
2023-05-17T06:43:35.747Z,22.54
2023-05-17T06:44:40.768Z,22.40
2023-05-17T06:45:44.784Z,22.18
2023-05-17T06:46:48.094Z,21.91
2023-05-17T06:47:52.866Z,21.62
2023-05-17T06:48:56.789Z,21.32
2023-05-17T06:50:00.105Z,21.05
2023-05-17T06:51:03.881Z,20.80
2023-05-17T06:52:06.685Z,20.59
2023-05-17T06:53:10.965Z,20.41
2023-05-17T06:54:14.821Z,20.33
2023-05-17T06:55:18.579Z,20.29
2023-05-17T06:56:22.374Z,20.19
2023-05-17T06:57:25.385Z,20.12
2023-05-17T06:58:31.909Z,20.02
2023-05-17T06:59:35.005Z,19.94
2023-05-17T07:00:38.999Z,19.86
2023-05-17T07:01:42.621Z,19.82
2023-05-17T07:02:46.372Z,19.93
2023-05-17T07:03:49.895Z,20.15
2023-05-17T07:04:53.023Z,20.49
2023-05-17T07:05:58.124Z,20.72
2023-05-17T07:07:01.530Z,20.73
2023-05-17T07:08:06.038Z,20.67
2023-05-17T07:09:09.485Z,20.58
2023-05-17T07:10:13.336Z,20.51
2023-05-17T07:11:16.989Z,20.44
2023-05-17T07:12:21.161Z,20.35
2023-05-17T07:13:26.691Z,20.24
2023-05-17T07:14:31.282Z,20.10
2023-05-17T07:15:35.098Z,19.95
2023-05-17T07:16:39.360Z,19.82
2023-05-17T07:17:44.322Z,19.75
2023-05-17T07:18:48.822Z,19.73
2023-05-17T07:20:00.297Z,19.67
2023-05-17T07:21:05.659Z,19.57
2023-05-17T07:22:08.600Z,19.49
2023-05-17T07:23:13.537Z,19.45
2023-05-17T07:24:17.090Z,19.40
2023-05-17T07:25:25.006Z,19.34
2023-05-17T07:26:30.087Z,19.29
2023-05-17T07:27:34.017Z,19.22
2023-05-17T07:28:38.673Z,19.21
2023-05-17T07:29:44.854Z,19.25
2023-05-17T07:30:50.877Z,19.45
2023-05-17T07:31:59.144Z,19.73
2023-05-17T07:33:05.171Z,19.82
2023-05-17T07:34:09.700Z,19.81
2023-05-17T07:35:13.307Z,19.77
2023-05-17T07:36:17.495Z,19.73
2023-05-17T07:37:22.480Z,19.70
2023-05-17T07:38:26.634Z,19.69
2023-05-17T07:39:29.880Z,19.69
2023-05-17T07:40:33.509Z,19.64
2023-05-17T07:41:39.244Z,19.58
2023-05-17T07:42:43.473Z,19.54
2023-05-17T07:43:46.190Z,19.51
2023-05-17T07:44:52.685Z,19.46
2023-05-17T07:45:55.534Z,19.40
2023-05-17T07:46:59.902Z,19.41
2023-05-17T07:48:02.849Z,19.44
2023-05-17T07:49:06.908Z,19.47
2023-05-17T07:50:10.738Z,19.48
2023-05-17T07:51:14.980Z,19.52
2023-05-17T07:52:18.485Z,19.57
2023-05-17T07:53:23.047Z,19.64
2023-05-17T07:54:31.329Z,19.72
2023-05-17T07:55:36.137Z,19.85
2023-05-17T07:56:39.883Z,20.00
2023-05-17T07:57:45.658Z,20.20
2023-05-17T07:58:49.850Z,20.60
2023-05-17T07:59:56.942Z,20.95
2023-05-17T08:01:02.288Z,21.05
2023-05-17T08:02:06.687Z,21.02
2023-05-17T08:03:11.706Z,20.92
2023-05-17T08:04:15.775Z,20.78
2023-05-17T08:05:20.420Z,20.68
2023-05-17T08:06:25.669Z,20.58
2023-05-17T08:07:30.145Z,20.50
2023-05-17T08:08:35.471Z,20.45
2023-05-17T08:09:41.039Z,20.42
2023-05-17T08:10:46.738Z,20.40
2023-05-17T08:11:50.396Z,20.38
2023-05-17T08:12:55.612Z,20.32
2023-05-17T08:14:00.319Z,20.26
2023-05-17T08:15:08.122Z,20.19
2023-05-17T08:16:14.822Z,20.11
2023-05-17T08:17:20.703Z,20.06
2023-05-17T08:18:24.919Z,20.01
2023-05-17T08:19:30.588Z,20.00
2023-05-17T08:20:36.181Z,20.00
2023-05-17T08:21:40.526Z,20.00
2023-05-17T08:22:45.678Z,19.96
2023-05-17T08:23:49.607Z,19.94
2023-05-17T08:24:54.874Z,19.91
2023-05-17T08:25:57.908Z,19.89
2023-05-17T08:27:02.704Z,19.86
2023-05-17T08:28:06.683Z,19.81
2023-05-17T08:29:11.281Z,19.78
2023-05-17T08:30:27.860Z,19.74
2023-05-17T08:31:33.604Z,19.67
2023-05-17T08:32:37.826Z,19.67
2023-05-17T08:33:42.943Z,19.66
2023-05-17T08:34:47.767Z,19.70
2023-05-17T08:35:53.519Z,19.80
2023-05-17T08:36:56.700Z,19.92
2023-05-17T08:38:01.433Z,19.98
2023-05-17T08:39:09.171Z,20.03
2023-05-17T08:40:13.067Z,20.06
2023-05-17T08:41:18.081Z,20.06
2023-05-17T08:42:25.730Z,20.05
2023-05-17T08:43:29.737Z,20.02
2023-05-17T08:44:34.544Z,19.99
2023-05-17T08:45:40.283Z,19.97
2023-05-17T08:46:46.070Z,19.96
2023-05-17T08:47:52.067Z,19.98
2023-05-17T08:49:00.452Z,19.97
2023-05-17T08:50:05.492Z,19.98
2023-05-17T08:51:10.572Z,19.98
2023-05-17T08:52:16.071Z,19.98
2023-05-17T08:53:20.014Z,20.00
2023-05-17T08:54:24.905Z,20.03
2023-05-17T08:55:33.430Z,20.08
2023-05-17T08:56:44.315Z,20.12
2023-05-17T08:57:51.049Z,20.18
2023-05-17T08:58:58.146Z,20.27
2023-05-17T09:00:04.595Z,20.36
2023-05-17T09:01:15.497Z,20.50
2023-05-17T09:02:19.741Z,20.62
2023-05-17T09:03:25.637Z,20.69
2023-05-17T09:04:31.680Z,20.81
2023-05-17T09:05:36.604Z,20.94
2023-05-17T09:06:45.934Z,21.19
2023-05-17T09:07:50.534Z,21.48
2023-05-17T09:08:55.912Z,21.63
2023-05-17T09:10:00.597Z,21.71
2023-05-17T09:11:04.324Z,21.78
2023-05-17T09:12:09.292Z,21.81
2023-05-17T09:13:13.449Z,21.82
2023-05-17T09:14:18.416Z,21.81
2023-05-17T09:15:28.326Z,21.80
2023-05-17T09:16:35.678Z,21.85
2023-05-17T09:17:39.919Z,22.02
2023-05-17T09:18:43.232Z,22.19
2023-05-17T09:19:50.906Z,22.44
2023-05-17T09:20:55.154Z,22.65
2023-05-17T09:22:02.913Z,22.90
2023-05-17T09:23:09.823Z,23.07
2023-05-17T09:24:13.382Z,23.13
2023-05-17T09:25:21.317Z,23.06
2023-05-17T09:26:26.355Z,22.96
2023-05-17T09:27:33.185Z,22.89
2023-05-17T09:28:41.058Z,22.79
2023-05-17T09:29:47.435Z,22.71
2023-05-17T09:30:52.760Z,22.64
2023-05-17T09:32:13.488Z,22.56
2023-05-17T09:33:19.025Z,22.50
2023-05-17T09:34:26.979Z,22.48
2023-05-17T09:35:31.162Z,22.50
2023-05-17T09:36:39.091Z,22.51
2023-05-17T09:37:45.952Z,22.48
2023-05-17T09:38:59.574Z,22.42
2023-05-17T09:40:07.402Z,22.36
2023-05-17T09:41:11.830Z,22.30
2023-05-17T09:42:18.480Z,22.25
2023-05-17T09:43:26.681Z,22.17
2023-05-17T09:44:30.480Z,22.08
2023-05-17T09:45:33.601Z,21.98
2023-05-17T09:46:43.006Z,21.91
2023-05-17T09:47:48.590Z,21.88
2023-05-17T09:48:55.521Z,21.82
2023-05-17T09:50:04.071Z,21.77
2023-05-17T09:51:08.356Z,21.73
2023-05-17T09:52:11.236Z,21.69
2023-05-17T09:53:26.289Z,21.63
2023-05-17T09:54:33.665Z,21.58
2023-05-17T09:55:39.206Z,21.54
2023-05-17T09:56:43.287Z,21.49
2023-05-17T09:57:48.780Z,21.41
2023-05-17T09:58:52.225Z,21.35
2023-05-17T09:59:58.253Z,21.30
2023-05-17T10:01:03.920Z,21.23
2023-05-17T10:02:13.329Z,21.15
2023-05-17T10:03:18.280Z,21.08
2023-05-17T10:04:24.944Z,21.04
2023-05-17T10:05:28.636Z,21.00
2023-05-17T10:06:46.067Z,20.98
2023-05-17T10:07:52.754Z,20.95
2023-05-17T10:08:59.591Z,20.94
2023-05-17T10:10:05.415Z,20.94
2023-05-17T10:11:11.328Z,20.96
2023-05-17T10:12:18.769Z,20.96
2023-05-17T10:13:26.050Z,20.97
2023-05-17T10:14:32.648Z,20.96
2023-05-17T10:15:38.672Z,20.97
2023-05-17T10:16:43.645Z,20.98
2023-05-17T10:17:48.413Z,20.98
2023-05-17T10:18:54.125Z,20.99
2023-05-17T10:19:59.946Z,21.00
2023-05-17T10:21:03.903Z,21.01
2023-05-17T10:22:18.974Z,21.03
2023-05-17T10:23:27.923Z,20.95
2023-05-17T10:24:32.028Z,20.91
2023-05-17T10:25:37.288Z,20.91
2023-05-17T10:26:41.084Z,20.92
2023-05-17T10:27:45.639Z,20.93
2023-05-17T10:28:51.636Z,20.92
2023-05-17T10:29:56.588Z,20.94
2023-05-17T10:31:00.791Z,20.90
2023-05-17T10:32:07.828Z,20.89
2023-05-17T10:33:16.027Z,20.86
2023-05-17T10:34:21.955Z,20.85
2023-05-17T10:35:27.634Z,20.86
2023-05-17T10:36:31.953Z,20.90
2023-05-17T10:37:36.318Z,20.93
2023-05-17T10:38:42.836Z,20.94
2023-05-17T10:39:51.204Z,20.95
2023-05-17T10:40:56.622Z,20.95
2023-05-17T10:42:13.588Z,20.92
2023-05-17T10:43:20.061Z,20.91
2023-05-17T10:44:23.381Z,20.95
2023-05-17T10:45:28.239Z,20.99
2023-05-17T10:46:32.559Z,21.05
2023-05-17T10:47:36.916Z,21.14
2023-05-17T10:48:41.721Z,21.25
2023-05-17T10:49:48.698Z,21.37
2023-05-17T10:52:13.889Z,21.48
2023-05-17T10:53:16.939Z,21.52
2023-05-17T10:54:21.716Z,21.54
2023-05-17T10:55:27.438Z,21.55
2023-05-17T10:56:32.408Z,21.57
2023-05-17T10:58:46.319Z,21.55
2023-05-17T11:00:00.504Z,21.49
2023-05-17T11:01:08.211Z,21.40
2023-05-17T11:02:11.350Z,21.26
2023-05-17T11:03:17.076Z,21.16
2023-05-17T11:04:26.313Z,21.06
2023-05-17T11:05:33.908Z,20.97
2023-05-17T11:06:38.579Z,20.91
2023-05-17T11:07:43.851Z,20.91
2023-05-17T11:09:08.530Z,20.91
2023-05-17T11:10:14.448Z,20.83
2023-05-17T11:11:18.855Z,20.80
2023-05-17T11:12:39.376Z,20.75
2023-05-17T11:13:48.201Z,20.76
2023-05-17T11:14:55.342Z,20.75
2023-05-17T11:16:06.153Z,20.74
2023-05-17T11:17:14.726Z,20.72
2023-05-17T11:18:29.548Z,20.70
2023-05-17T11:19:35.846Z,20.64
2023-05-17T11:20:41.972Z,20.60
2023-05-17T11:21:49.369Z,20.55
2023-05-17T11:23:02.817Z,20.51
2023-05-17T11:24:08.850Z,20.45
2023-05-17T11:25:13.843Z,20.44
2023-05-17T11:26:22.773Z,20.41
2023-05-17T11:27:27.745Z,20.37
2023-05-17T11:28:35.952Z,20.35
2023-05-17T11:29:41.475Z,20.30
2023-05-17T11:30:52.208Z,20.22
2023-05-17T11:31:55.695Z,20.09
2023-05-17T11:33:01.162Z,20.03
2023-05-17T11:34:05.404Z,19.96
2023-05-17T11:35:12.306Z,19.93
2023-05-17T11:36:24.413Z,19.90
2023-05-17T11:37:28.927Z,19.89
2023-05-17T11:38:34.481Z,19.90
2023-05-17T11:39:37.754Z,19.95
2023-05-17T11:40:42.780Z,20.02
2023-05-17T11:41:51.171Z,20.04
2023-05-17T11:43:14.333Z,20.03
2023-05-17T11:44:27.118Z,20.01
2023-05-17T11:45:39.503Z,20.00
2023-05-17T11:46:44.532Z,20.00
2023-05-17T11:47:49.718Z,20.01
2023-05-17T11:48:54.893Z,19.99
2023-05-17T11:50:02.041Z,19.95
2023-05-17T11:51:24.418Z,19.94
2023-05-17T11:52:31.878Z,19.85
2023-05-17T11:53:35.699Z,19.83
2023-05-17T11:54:43.047Z,19.81
2023-05-17T11:55:48.679Z,19.80
2023-05-17T11:56:54.386Z,19.80
2023-05-17T11:57:58.243Z,19.81
2023-05-17T11:59:01.673Z,19.86
2023-05-17T12:00:06.188Z,19.91
2023-05-17T12:01:11.745Z,19.96
2023-05-17T12:02:29.552Z,19.96
2023-05-17T12:03:33.637Z,19.95
2023-05-17T12:04:39.756Z,19.93
2023-05-17T12:05:43.038Z,19.91
2023-05-17T12:06:47.030Z,19.90
2023-05-17T12:07:53.767Z,19.87
2023-05-17T12:08:58.741Z,19.82
2023-05-17T12:10:02.752Z,19.78
2023-05-17T12:11:07.469Z,19.75
2023-05-17T12:12:10.885Z,19.70
2023-05-17T12:13:15.671Z,19.68
2023-05-17T12:14:20.570Z,19.68
2023-05-17T12:15:23.767Z,19.68
2023-05-17T12:16:30.829Z,19.72
2023-05-17T12:17:38.656Z,19.80
2023-05-17T12:18:44.539Z,19.85
2023-05-17T12:19:48.909Z,19.93
2023-05-17T12:20:58.424Z,20.00
2023-05-17T12:22:08.781Z,20.06
2023-05-17T12:23:13.857Z,20.07
2023-05-17T12:24:18.196Z,20.09
2023-05-17T12:25:22.603Z,20.04
2023-05-17T12:26:26.697Z,19.99
2023-05-17T12:27:31.577Z,19.92
2023-05-17T12:28:35.866Z,19.82
2023-05-17T12:29:40.319Z,19.65
2023-05-17T12:30:43.647Z,19.47
2023-05-17T12:31:51.706Z,19.27
2023-05-17T12:32:55.086Z,18.99
2023-05-17T12:34:02.995Z,18.80
2023-05-17T12:35:06.740Z,18.55
2023-05-17T12:36:12.477Z,18.40
2023-05-17T12:37:17.011Z,18.26
2023-05-17T12:38:22.571Z,18.16
2023-05-17T12:39:26.961Z,18.10
2023-05-17T12:40:30.249Z,18.07
2023-05-17T12:41:34.451Z,18.01
2023-05-17T12:42:41.276Z,17.93
2023-05-17T12:43:46.880Z,17.90
2023-05-17T12:44:50.903Z,17.92
2023-05-17T12:45:55.065Z,17.87
2023-05-17T12:46:58.809Z,17.84
2023-05-17T12:48:03.321Z,17.84
2023-05-17T12:49:08.776Z,17.89
2023-05-17T12:50:13.079Z,17.93
2023-05-17T12:51:18.472Z,18.00
2023-05-17T12:52:21.232Z,18.16
2023-05-17T12:53:36.522Z,18.35
2023-05-17T12:54:43.591Z,18.54
2023-05-17T12:55:48.283Z,18.70
2023-05-17T12:56:52.089Z,18.83
2023-05-17T12:57:55.334Z,18.94
2023-05-17T12:59:13.127Z,19.04
2023-05-17T13:00:18.473Z,19.08
2023-05-17T13:01:24.782Z,19.11
2023-05-17T13:02:28.696Z,19.14
2023-05-17T13:03:33.197Z,19.19
2023-05-17T13:04:37.965Z,19.23
2023-05-17T13:05:43.612Z,19.27
2023-05-17T13:06:50.845Z,19.32
2023-05-17T13:07:54.553Z,19.36
2023-05-17T13:09:03.692Z,19.43
2023-05-17T13:10:20.881Z,19.47
2023-05-17T13:11:27.320Z,19.51
2023-05-17T13:12:31.635Z,19.54
2023-05-17T13:13:35.900Z,19.57
2023-05-17T13:14:45.268Z,19.55
2023-05-17T13:15:50.650Z,19.54
2023-05-17T13:16:55.098Z,19.53
2023-05-17T13:18:00.789Z,19.53
2023-05-17T13:19:13.960Z,19.52
2023-05-17T13:20:17.486Z,19.48
2023-05-17T13:21:21.650Z,19.47
2023-05-17T13:22:26.838Z,19.45
2023-05-17T13:23:29.514Z,19.43
2023-05-17T13:24:36.754Z,19.42
2023-05-17T13:25:40.666Z,19.43
2023-05-17T13:26:44.878Z,19.42
2023-05-17T13:27:49.952Z,19.42
2023-05-17T13:28:52.638Z,19.41
2023-05-17T13:29:57.220Z,19.41
2023-05-17T13:30:59.906Z,19.41
2023-05-17T13:32:04.291Z,19.40
2023-05-17T13:33:07.727Z,19.40
2023-05-17T13:34:12.174Z,19.40
2023-05-17T13:35:16.373Z,19.41
2023-05-17T13:36:20.209Z,19.42
2023-05-17T13:37:24.477Z,19.44
2023-05-17T13:38:27.318Z,19.45
2023-05-17T13:39:31.324Z,19.47
2023-05-17T13:40:36.550Z,19.49
2023-05-17T13:41:40.807Z,19.47
2023-05-17T13:42:43.681Z,19.48
2023-05-17T13:43:48.759Z,19.51
2023-05-17T13:44:52.147Z,19.52
2023-05-17T13:45:59.332Z,19.53
2023-05-17T13:47:03.911Z,19.53
2023-05-17T13:48:06.982Z,19.52
2023-05-17T13:49:11.612Z,19.52
2023-05-17T13:50:17.682Z,19.55
2023-05-17T13:51:20.784Z,19.55
2023-05-17T13:52:25.605Z,19.59
2023-05-17T13:53:28.416Z,19.61
2023-05-17T13:54:32.524Z,19.63
2023-05-17T13:55:39.723Z,19.65
2023-05-17T13:56:42.966Z,19.67
2023-05-17T13:57:47.109Z,19.68
2023-05-17T13:58:51.705Z,19.63
2023-05-17T13:59:56.885Z,19.58
2023-05-17T14:02:05.127Z,19.43
2023-05-17T14:03:11.399Z,19.33
2023-05-17T14:04:14.512Z,19.25
2023-05-17T14:05:19.120Z,19.20